Hattiesburg, MS (39401)

10:35 PM CDT on August 31, 2015 (GMT -0500)
Woodhaven | | Change Station
CLOSE
Current Station
Personal Weather Station
Location: Hattiesburg, MS
Elevation: 374 ft
Nearby Weather Stations

Elev 374 ft 31.28 °N, 89.35 °W | Updated 8 seconds ago

Mostly Cloudy
Mostly Cloudy
78.6 °F
Feels Like 81 °F
N
0.0
Wind Variable Wind from SW
Gusts 0.0 mph

Today
High -- | Low -- °F
--% Chance of Precip.
Yesterday
High -- | Low -- °F
Precip. -- in
6:32 AM 7:22 PM
Waning Gibbous, 92% visible
Pressure 30.04 in
Visibility 10.0 miles
Clouds Mostly Cloudy 7500 ft
Heat Index 81 °F
Dew Point 71 °F
Humidity 77%
Rainfall 0.00 in
Snow Depth Not available.
UV 0.0 out of 12
Pollen 7.40 out of 12
Air Quality Not available.
Flu Activity Not available.
METAR KHBG 010253Z AUTO 17003KT 10SM BKN075 28/20 A3005 RMK AO2 SLP173 T02780200 53014
Pressure 30.04 in
Visibility 10.0 miles
Clouds Mostly Cloudy 7500 ft
Heat Index 81 °F
Dew Point 71 °F
Humidity 77%
Rainfall 0.00 in
Snow Depth Not available.
UV 0.0 out of 12
Pollen 7.40 out of 12
Air Quality Not available.
Flu Activity Not available.
METAR KHBG 010253Z AUTO 17003KT 10SM BKN075 28/20 A3005 RMK AO2 SLP173 T02780200 53014

10-Day Weather Forecast

×

Almanac

Astronomy

Aug. 31, 2015 Rise Set
Actual Time
Civil Twilight
Nautical Twilight
Astronomical Twilight
Moon
Length of Visible Light
Length of Day
Tomorrow will be .
, % of the Moon is Illuminated

Today's Extremes

State Highs State Lows

Community

WunderPhotos

Upload Photos

1,851,475 photos uploaded!

WunderBlogs® & News

Nearby

Air Quality

  Air Quality AQ Index Pollutant
Not available.

Snow Depth

Station Depth Elevation

Earthquake Activity

City Distance Mag. Time & Date
Minimum magnitude displayed is 2.5.

Coastal Water Temperatures

Place Temperature

Stations

Nearby Weather Stations

Station Location Temp. Windchill Dew Point Humidity Wind Precip. Elev Updated Type